Time;durP1;ratioP1;P1;durP2;ratioP2;P2;SDS_P1;SDS_P2;PMS_P1;PMS_P2;Temp;Humidity;BMP_temperature;BMP_pressure;BME280_temperature;BME280_humidity;BME280_pressure;Samples;Min_cycle;Max_cycle;Signal;HPM_P1;HPM_P2
2023/09/08 00:01:28;;;;;;;5.14;4.52;;;;;;;20.06;67.07;99320.66;7230827;40;20364;31
2023/09/08 00:07:04;;;;;;;8.55;4.37;;;;;;;20.06;66.25;99320.66;7280559;39;20338;31
2023/09/08 00:12:39;;;;;;;6.00;4.70;;;;;;;20.08;66.87;99321.28;7291129;39;20252;31
2023/09/08 00:18:15;;;;;;;5.03;4.20;;;;;;;19.97;66.77;99319.28;7218434;40;20367;31
2023/09/08 00:23:51;;;;;;;5.87;4.50;;;;;;;19.84;67.12;99306.56;7215461;40;20756;31
2023/09/08 00:29:30;;;;;;;7.10;4.20;;;;;;;19.89;67.23;99311.34;7212688;40;20815;31
2023/09/08 00:35:05;;;;;;;6.70;4.90;;;;;;;19.84;66.58;99302.97;7246493;40;20779;31
2023/09/08 00:40:40;;;;;;;8.60;4.32;;;;;;;19.79;67.38;99304.50;7323774;39;20705;31
2023/09/08 00:46:16;;;;;;;12.20;5.45;;;;;;;19.90;67.75;99308.41;7277975;40;20253;31
2023/09/08 00:51:49;;;;;;;10.20;4.62;;;;;;;19.70;68.04;99300.34;7256954;40;20763;31
2023/09/08 00:57:25;;;;;;;5.80;4.30;;;;;;;19.72;66.83;99300.97;7268564;40;20256;31
2023/09/08 01:02:49;;;;;;;7.87;4.33;;;;;;;19.72;67.50;99300.97;7217882;40;20238;31
2023/09/08 01:08:22;;;;;;;6.32;4.60;;;;;;;19.56;68.61;99301.53;7256456;39;20322;31
2023/09/08 01:14:08;;;;;;;;;;;;;;;;;;;;;
2023/09/08 01:19:31;;;;;;;8.13;4.32;;;;;;;19.65;67.32;99302.09;7208365;40;20380;31
2023/09/08 01:25:29;;;;;;;7.63;4.70;;;;;;;19.43;68.39;99303.50;7310392;39;20258;31
2023/09/08 01:31:05;;;;;;;5.00;4.50;;;;;;;19.39;68.32;99299.53;7274077;39;20342;31
2023/09/08 01:36:41;;;;;;;5.20;4.50;;;;;;;19.46;67.57;99294.88;7282743;39;20408;31
2023/09/08 01:42:20;;;;;;;7.32;4.53;;;;;;;19.51;68.20;99298.63;7251405;40;20246;31
2023/09/08 01:47:42;;;;;;;6.07;4.53;;;;;;;19.62;66.93;99295.16;7251987;40;20264;31
2023/09/08 01:53:02;;;;;;;6.65;4.53;;;;;;;19.67;67.08;99295.34;7320847;39;20274;31
2023/09/08 02:03:40;;;;;;;6.50;5.00;;;;;;;19.23;68.57;99287.22;7298105;39;20297;31
2023/09/08 02:09:02;;;;;;;6.30;4.50;;;;;;;19.24;69.01;99291.63;7290632;39;20229;31
2023/09/08 02:14:37;;;;;;;5.73;4.70;;;;;;;19.11;68.74;99295.28;7290760;39;20240;31
2023/09/08 02:20:16;;;;;;;8.40;5.00;;;;;;;18.92;70.07;99291.59;7278712;40;20256;31
2023/09/08 02:25:50;;;;;;;5.50;4.57;;;;;;;18.80;70.09;99285.16;7256545;39;20280;31
2023/09/08 02:31:22;;;;;;;9.50;5.10;;;;;;;18.81;69.16;99294.19;7233297;40;20274;31
2023/09/08 02:36:54;;;;;;;8.47;5.03;;;;;;;18.82;69.54;99283.03;7006119;40;20242;31
2023/09/08 02:47:33;;;;;;;6.67;4.70;;;;;;;19.13;69.39;99303.28;7280429;39;21201;31
2023/09/08 02:53:10;;;;;;;5.70;4.70;;;;;;;18.86;69.02;99297.94;7277475;39;20252;31
2023/09/08 02:58:33;;;;;;;4.93;4.40;;;;;;;18.97;69.06;99301.03;7281000;39;20259;31
2023/09/08 03:04:04;;;;;;;5.90;4.68;;;;;;;19.02;68.30;99296.59;7294738;40;20344;31
2023/09/08 03:09:41;;;;;;;6.97;4.57;;;;;;;18.98;68.46;99310.91;7208511;40;20408;31
2023/09/08 03:15:17;;;;;;;5.00;4.50;;;;;;;18.93;69.08;99308.81;7229559;40;20296;31
2023/09/08 03:20:40;;;;;;;5.50;4.70;;;;;;;19.00;68.32;99311.53;7262074;40;20697;31
2023/09/08 03:26:13;;;;;;;5.50;5.00;;;;;;;18.88;68.76;99309.47;7287167;39;20265;31
2023/09/08 03:31:49;;;;;;;6.07;4.77;;;;;;;18.86;69.26;99311.59;7287712;40;20794;31
2023/09/08 03:37:26;;;;;;;5.75;4.45;;;;;;;18.82;68.62;99304.88;7250473;40;20253;31
2023/09/08 03:43:02;;;;;;;8.07;4.67;;;;;;;18.81;69.17;99310.56;7251631;40;20268;31
2023/09/08 03:48:37;;;;;;;5.10;4.60;;;;;;;18.84;67.82;99310.13;7269828;39;20850;31
2023/09/08 03:59:17;;;;;;;6.40;4.90;;;;;;;18.83;68.52;99308.44;7314908;39;20270;31
2023/09/08 04:09:57;;;;;;;8.10;5.40;;;;;;;18.38;70.43;99310.28;7327577;39;20283;31
2023/09/08 04:15:34;;;;;;;8.40;5.50;;;;;;;18.34;71.01;99312.56;7306950;39;20253;31
2023/09/08 04:20:55;;;;;;;7.87;5.37;;;;;;;18.36;71.06;99315.94;7316875;39;20252;31
2023/09/08 04:26:16;;;;;;;6.65;5.30;;;;;;;18.43;70.81;99324.09;7342877;39;20266;31
2023/09/08 04:31:52;;;;;;;6.64;5.06;;;;;;;18.57;70.26;99325.78;7266782;39;20357;31
2023/09/08 04:37:13;;;;;;;6.50;5.07;;;;;;;18.75;69.43;99330.53;7307262;39;20245;31
2023/09/08 04:42:33;;;;;;;6.30;5.30;;;;;;;18.77;68.71;99328.44;7305893;39;20340;31
2023/09/08 04:48:09;;;;;;;7.90;5.30;;;;;;;18.72;69.47;99325.53;7279344;40;20291;31
2023/09/08 04:53:29;;;;;;;6.80;5.00;;;;;;;18.76;69.17;99340.41;7252243;40;20245;31
2023/09/08 04:58:49;;;;;;;6.37;4.67;;;;;;;18.75;69.20;99331.37;7242979;40;20396;31
2023/09/08 05:04:25;;;;;;;6.25;4.90;;;;;;;18.63;69.58;99338.56;7275618;39;20257;31
2023/09/08 05:10:00;;;;;;;6.12;5.45;;;;;;;18.58;69.19;99341.09;7227447;39;20288;31
2023/09/08 05:15:21;;;;;;;5.40;4.88;;;;;;;18.62;69.29;99346.97;7308785;39;20429;31
2023/09/08 05:20:58;;;;;;;7.47;5.07;;;;;;;18.54;70.30;99345.31;7312642;39;20264;31
2023/09/08 05:26:18;;;;;;;7.83;5.33;;;;;;;18.48;69.68;99357.06;7272899;40;20241;31
2023/09/08 05:31:54;;;;;;;6.90;5.40;;;;;;;18.29;70.81;99355.22;7328642;39;20248;31
2023/09/08 05:37:28;;;;;;;7.03;5.40;;;;;;;18.05;71.54;99347.69;7279142;40;20257;31
2023/09/08 05:43:03;;;;;;;6.60;5.10;;;;;;;18.14;71.41;99354.59;7226508;40;20325;31
2023/09/08 05:48:23;;;;;;;6.00;4.97;;;;;;;18.18;71.09;99366.75;7246376;40;20237;31
2023/09/08 05:54:00;;;;;;;7.60;5.40;;;;;;;18.20;71.61;99360.06;7266699;39;20263;31
2023/09/08 05:59:35;;;;;;;6.80;5.60;;;;;;;18.32;71.72;99365.69;7217617;40;20242;31
2023/09/08 06:04:56;;;;;;;6.80;5.20;;;;;;;18.31;71.76;99367.59;7246328;40;20253;31
2023/09/08 06:10:31;;;;;;;7.40;5.23;;;;;;;18.38;72.92;99367.59;7273163;39;20237;31
2023/09/08 06:15:51;;;;;;;6.50;5.50;;;;;;;18.51;72.73;99366.72;7276864;39;20846;31
2023/09/08 06:21:27;;;;;;;8.20;5.67;;;;;;;18.61;71.75;99367.13;7278356;39;20442;31
2023/09/08 06:27:03;;;;;;;6.10;5.10;;;;;;;18.80;72.08;99372.56;7264315;39;20401;31
2023/09/08 06:32:38;;;;;;;7.20;5.70;;;;;;;19.00;71.08;99366.19;7285482;39;20273;31
2023/09/08 06:38:13;;;;;;;9.82;5.20;;;;;;;19.23;70.55;99361.00;7296501;39;20697;31
2023/09/08 06:43:49;;;;;;;8.50;5.60;;;;;;;19.40;72.18;99377.72;7269404;40;20356;31
2023/09/08 06:49:10;;;;;;;5.83;5.20;;;;;;;19.59;71.22;99366.72;7224129;40;20371;31
2023/09/08 06:59:49;;;;;;;7.00;5.25;;;;;;;19.99;69.48;99360.94;7267866;40;20696;31
2023/09/08 07:05:21;;;;;;;6.82;4.97;;;;;;;20.18;69.00;99370.91;7264296;40;20341;31
2023/09/08 07:10:56;;;;;;;9.07;5.50;;;;;;;20.37;67.78;99375.37;7326002;39;20247;31
2023/09/08 07:16:32;;;;;;;6.32;5.70;;;;;;;20.57;67.82;99376.03;7259264;40;20244;31
2023/09/08 07:21:57;;;;;;;7.40;5.30;;;;;;;20.76;66.44;99378.75;7208292;40;20340;31
2023/09/08 07:27:32;;;;;;;11.65;6.40;;;;;;;20.97;66.79;99376.41;7267909;39;20315;31
2023/09/08 07:33:08;;;;;;;6.83;5.67;;;;;;;21.07;66.09;99373.94;7229455;40;20273;31
2023/09/08 07:38:26;;;;;;;7.00;5.50;;;;;;;21.25;65.96;99383.25;7310265;39;20349;31
2023/09/08 07:43:45;;;;;;;6.20;5.12;;;;;;;21.40;65.79;99391.91;7289705;39;21619;31
2023/09/08 07:49:20;;;;;;;9.70;4.85;;;;;;;21.48;65.34;99395.19;7321281;39;20260;31
2023/09/08 07:54:44;;;;;;;6.90;5.68;;;;;;;21.65;65.08;99389.03;7271200;39;20265;31
2023/09/08 08:00:17;;;;;;;6.28;5.53;;;;;;;21.77;64.41;99392.63;7308029;39;20251;31
2023/09/08 08:05:50;;;;;;;14.15;5.30;;;;;;;21.85;64.49;99376.66;7318568;39;20261;31
2023/09/08 08:11:23;;;;;;;8.07;5.25;;;;;;;22.09;64.27;99372.09;7228504;40;20282;31
2023/09/08 08:16:44;;;;;;;8.45;6.07;;;;;;;22.24;63.54;99378.00;7171575;40;20266;31
2023/09/08 08:22:20;;;;;;;5.60;5.10;;;;;;;22.39;63.93;99370.09;7221905;40;20293;31
2023/09/08 08:27:56;;;;;;;6.37;5.78;;;;;;;22.52;63.97;99368.19;7234497;40;20498;31
2023/09/08 08:33:31;;;;;;;6.54;5.74;;;;;;;22.74;63.10;99380.25;7259384;39;20348;31
2023/09/08 08:39:06;;;;;;;6.57;5.32;;;;;;;22.87;62.28;99375.34;7259533;39;20300;31
2023/09/08 08:44:42;;;;;;;7.40;5.75;;;;;;;23.05;62.47;99374.34;7270598;39;20259;31
2023/09/08 08:50:17;;;;;;;7.60;5.60;;;;;;;23.12;62.17;99364.06;7290739;39;20306;31
2023/09/08 08:55:51;;;;;;;7.73;5.43;;;;;;;23.27;61.28;99371.78;7255537;40;20450;31
2023/09/08 09:01:26;;;;;;;8.00;6.10;;;;;;;23.43;61.44;99370.19;7267563;39;20275;31
2023/09/08 09:07:03;;;;;;;7.03;5.82;;;;;;;23.66;61.22;99375.59;7220795;40;20365;31
2023/09/08 09:12:35;;;;;;;9.80;5.90;;;;;;;23.85;60.30;99368.78;7243041;40;21138;31
2023/09/08 09:18:15;;;;;;;6.85;5.70;;;;;;;24.11;60.58;99370.06;7300446;39;20261;31
2023/09/08 09:23:50;;;;;;;7.20;5.80;;;;;;;24.20;59.57;99366.66;7270566;39;20264;31
2023/09/08 09:29:24;;;;;;;7.22;5.93;;;;;;;24.49;61.14;99366.53;7031537;40;20230;31
2023/09/08 09:45:47;;;;;;;6.82;5.68;;;;;;;25.13;58.32;99374.13;7191871;40;21078;31
2023/09/08 09:51:31;;;;;;;7.83;5.67;;;;;;;25.32;58.11;99382.06;7244133;40;20775;31
2023/09/08 09:57:07;;;;;;;9.48;5.82;;;;;;;25.52;57.02;99366.56;7214318;40;20246;31
2023/09/08 10:02:46;;;;;;;6.20;5.55;;;;;;;25.78;57.23;99364.94;7240237;40;20249;31
2023/09/08 10:08:21;;;;;;;5.97;5.37;;;;;;;25.90;56.43;99371.13;7187293;40;20250;31
2023/09/08 10:13:56;;;;;;;6.32;5.72;;;;;;;26.07;54.82;99361.84;7218420;40;20258;31
2023/09/08 10:19:34;;;;;;;11.32;5.80;;;;;;;26.17;54.45;99365.56;7274368;39;20253;31
2023/09/08 10:25:10;;;;;;;6.20;5.60;;;;;;;26.33;55.94;99361.00;7238614;40;20273;31
2023/09/08 10:30:56;;;;;;;8.70;6.10;;;;;;;26.39;54.96;99357.19;7292530;40;21593;31
2023/09/08 10:36:32;;;;;;;8.43;5.72;;;;;;;26.64;54.56;99362.03;7231355;40;20376;31
2023/09/08 10:42:03;;;;;;;8.40;5.87;;;;;;;26.86;54.26;99355.28;7191755;40;20781;31
2023/09/08 10:47:38;;;;;;;7.00;5.80;;;;;;;27.09;53.67;99353.19;7177663;40;21110;31
2023/09/08 10:53:27;;;;;;;8.85;5.60;;;;;;;27.22;53.51;99352.69;7218790;40;20228;31
2023/09/08 10:59:05;;;;;;;6.30;5.70;;;;;;;27.30;53.22;99346.63;7225359;40;20490;31
2023/09/08 11:04:41;;;;;;;6.90;5.53;;;;;;;27.49;53.49;99344.22;7221049;40;20271;31
2023/09/08 11:10:16;;;;;;;9.27;6.28;;;;;;;27.48;52.45;99346.16;7209637;40;20248;31
2023/09/08 11:15:51;;;;;;;7.53;6.60;;;;;;;27.52;52.34;99341.72;7195706;40;20242;31
2023/09/08 11:21:11;;;;;;;8.93;6.10;;;;;;;27.73;51.97;99339.84;7215025;40;20253;31
2023/09/08 11:26:51;;;;;;;10.82;6.70;;;;;;;28.01;52.93;99330.16;7254864;40;20410;31
2023/09/08 11:32:28;;;;;;;8.60;6.10;;;;;;;28.19;52.31;99329.63;7201064;40;20246;31
2023/09/08 11:37:49;;;;;;;5.87;5.35;;;;;;;28.35;51.84;99335.97;7199939;40;20243;31
2023/09/08 11:43:26;;;;;;;6.68;6.03;;;;;;;28.45;52.62;99333.22;7207750;40;20532;31
2023/09/08 11:54:05;;;;;;;7.30;6.30;;;;;;;28.67;51.33;99325.41;7238403;40;21168;31
2023/09/08 12:04:44;;;;;;;8.60;6.55;;;;;;;29.14;51.74;99326.94;7271558;39;20266;31
2023/09/08 12:10:22;;;;;;;9.05;5.90;;;;;;;29.38;50.88;99312.12;7280944;40;20238;31
2023/09/08 12:15:45;;;;;;;6.93;5.43;;;;;;;29.52;50.07;99313.16;7277229;39;20471;31
2023/09/08 12:21:23;;;;;;;7.37;5.63;;;;;;;29.47;50.07;99306.78;7299911;39;20764;31
2023/09/08 12:32:17;;;;;;;10.30;5.35;;;;;;;29.79;49.05;99304.34;7239324;40;20755;31
2023/09/08 12:37:54;;;;;;;5.97;5.37;;;;;;;29.76;50.50;99312.41;7253771;40;20727;31
2023/09/08 12:43:30;;;;;;;6.27;5.47;;;;;;;29.76;50.05;99307.69;7269547;40;20874;31
2023/09/08 12:48:50;;;;;;;6.25;5.28;;;;;;;29.91;49.09;99304.84;7261167;40;20458;31
2023/09/08 12:54:31;;;;;;;7.72;5.30;;;;;;;30.06;50.07;99294.72;7246784;40;20272;31
2023/09/08 13:00:09;;;;;;;5.85;5.35;;;;;;;30.08;49.63;99290.50;7222958;40;20301;31
2023/09/08 13:05:27;;;;;;;9.07;5.50;;;;;;;30.22;49.98;99280.38;7240102;40;20483;31
2023/09/08 13:16:07;;;;;;;5.68;5.18;;;;;;;30.35;48.66;99273.28;7260003;40;20464;31
2023/09/08 13:21:27;;;;;;;6.25;5.28;;;;;;;30.40;48.53;99271.28;7292029;39;20260;31
2023/09/08 13:26:47;;;;;;;8.40;5.30;;;;;;;30.28;48.82;99259.69;7270896;39;20259;31
2023/09/08 13:32:28;;;;;;;6.24;5.20;;;;;;;30.35;48.70;99251.84;7258029;40;20331;31
2023/09/08 13:37:44;;;;;;;5.38;4.88;;;;;;;30.43;47.84;99262.34;7292483;39;20264;31
2023/09/08 13:43:19;;;;;;;7.65;5.55;;;;;;;30.42;48.08;99257.88;7316188;39;20314;31
2023/09/08 13:48:55;;;;;;;7.72;5.22;;;;;;;30.39;49.05;99244.56;7323699;39;20260;31
2023/09/08 13:54:30;;;;;;;5.40;4.90;;;;;;;30.57;48.30;99250.53;7245052;39;20256;31
2023/09/08 13:59:51;;;;;;;5.65;5.05;;;;;;;30.61;49.07;99244.06;7208017;40;20246;31
2023/09/08 14:05:26;;;;;;;7.10;4.85;;;;;;;30.50;48.58;99245.31;7187845;40;20248;31
2023/09/08 14:11:03;;;;;;;6.18;5.03;;;;;;;30.46;48.53;99238.66;7282428;39;20256;31
2023/09/08 14:16:38;;;;;;;8.08;5.30;;;;;;;30.43;48.67;99231.72;7314375;39;20288;31
2023/09/08 14:22:13;;;;;;;6.12;5.40;;;;;;;30.48;49.70;99230.87;7216595;40;20273;31
2023/09/08 14:27:35;;;;;;;8.30;5.30;;;;;;;30.62;48.61;99225.44;7290049;39;20277;31
2023/09/08 14:33:09;;;;;;;5.55;5.05;;;;;;;30.64;49.00;99228.72;7278663;39;20474;31
2023/09/08 14:38:46;;;;;;;7.25;5.40;;;;;;;30.61;49.28;99227.38;7256978;40;20341;31
2023/09/08 14:44:07;;;;;;;6.47;5.37;;;;;;;30.52;48.56;99225.53;7316666;39;20493;31
2023/09/08 14:54:49;;;;;;;7.20;5.18;;;;;;;30.42;49.03;99216.16;7303803;39;20276;31
2023/09/08 15:00:25;;;;;;;5.53;4.90;;;;;;;30.49;50.16;99217.78;7287597;39;20239;31
2023/09/08 15:06:02;;;;;;;8.13;5.70;;;;;;;30.48;48.77;99219.75;7329350;39;20802;31
2023/09/08 15:11:39;;;;;;;6.05;5.35;;;;;;;30.36;48.70;99219.31;7277687;40;20346;31
2023/09/08 15:16:59;;;;;;;8.23;5.22;;;;;;;30.33;48.49;99217.91;7281275;40;20245;31
2023/09/08 15:22:19;;;;;;;6.75;5.30;;;;;;;30.33;49.25;99217.91;7256760;40;20764;31
2023/09/08 15:27:55;;;;;;;6.98;5.00;;;;;;;30.27;49.43;99209.94;7262979;39;20426;31
2023/09/08 15:33:16;;;;;;;5.13;4.63;;;;;;;30.33;49.27;99208.75;7250174;40;20768;31
2023/09/08 15:38:51;;;;;;;5.60;5.00;;;;;;;30.20;49.04;99210.28;7250398;40;20799;31
2023/09/08 15:44:28;;;;;;;5.65;4.97;;;;;;;30.03;48.86;99207.13;7233506;40;20521;31
2023/09/08 15:49:49;;;;;;;5.55;5.00;;;;;;;29.94;49.87;99206.94;7232462;40;20252;31
2023/09/08 15:55:10;;;;;;;5.65;5.15;;;;;;;29.76;50.05;99212.34;7256855;39;20241;31
2023/09/08 16:00:47;;;;;;;5.40;4.90;;;;;;;29.60;50.25;99202.50;7253980;39;20340;31
2023/09/08 16:06:19;;;;;;;6.75;4.93;;;;;;;29.44;50.22;99210.94;7082756;39;21450;31
2023/09/08 16:11:54;;;;;;;8.25;5.35;;;;;;;29.37;51.64;99201.28;7276531;39;20271;31
2023/09/08 16:17:31;;;;;;;5.02;4.62;;;;;;;29.28;50.62;99201.03;7179055;40;20278;31
2023/09/08 16:22:51;;;;;;;6.18;4.97;;;;;;;29.17;51.67;99205.03;7211471;40;20260;31
2023/09/08 16:28:26;;;;;;;7.95;4.95;;;;;;;29.09;51.95;99205.63;7241906;40;20261;31
2023/09/08 16:34:02;;;;;;;6.25;5.10;;;;;;;28.98;51.11;99202.06;7214153;40;20277;31
2023/09/08 16:39:22;;;;;;;8.38;5.40;;;;;;;28.92;51.84;99202.38;7278560;39;20298;31
2023/09/08 16:44:43;;;;;;;5.60;5.10;;;;;;;28.84;52.44;99203.81;7296355;39;20288;31
2023/09/08 16:50:20;;;;;;;6.35;5.28;;;;;;;28.77;52.55;99202.47;7286383;39;20253;31
2023/09/08 16:55:44;;;;;;;5.10;4.60;;;;;;;28.69;51.64;99201.09;7249417;40;20400;31
2023/09/08 17:01:22;;;;;;;5.40;4.90;;;;;;;28.58;52.59;99197.53;7254814;40;20252;31
2023/09/08 17:06:57;;;;;;;7.00;5.10;;;;;;;28.47;52.23;99198.69;7208086;40;20475;31
2023/09/08 17:12:32;;;;;;;5.45;4.95;;;;;;;28.36;54.84;99202.59;7191624;40;20266;31
2023/09/08 17:17:53;;;;;;;5.53;5.00;;;;;;;28.26;55.02;99205.41;7219087;40;20444;31
2023/09/08 17:23:27;;;;;;;7.65;5.45;;;;;;;28.13;56.04;99198.50;7225739;40;20238;31
2023/09/08 17:28:47;;;;;;;6.70;5.40;;;;;;;28.02;58.87;99191.31;7218088;40;20428;31
2023/09/08 17:34:08;;;;;;;5.25;4.80;;;;;;;27.82;59.04;99190.53;7254440;40;20448;31
2023/09/08 17:39:45;;;;;;;5.97;5.40;;;;;;;27.59;59.70;99194.69;7265704;40;20422;31
2023/09/08 17:45:08;;;;;;;6.68;5.40;;;;;;;27.43;60.44;99191.03;7288854;39;20244;31
2023/09/08 17:50:29;;;;;;;7.00;6.24;;;;;;;27.10;61.95;99203.47;7368844;39;20319;31
2023/09/08 17:56:05;;;;;;;6.93;6.20;;;;;;;26.88;60.96;99203.69;7351772;39;20333;31
2023/09/08 18:01:25;;;;;;;7.07;6.37;;;;;;;26.71;62.12;99202.22;7283410;39;20339;31
2023/09/08 18:06:45;;;;;;;9.18;6.32;;;;;;;26.53;61.83;99203.53;7246100;40;20241;31
2023/09/08 18:12:22;;;;;;;7.10;6.10;;;;;;;26.35;62.13;99209.53;7235828;40;20293;31
2023/09/08 18:17:54;;;;;;;6.75;6.05;;;;;;;26.19;62.82;99208.59;7283376;39;20429;31
2023/09/08 18:23:28;;;;;;;8.90;6.30;;;;;;;25.94;62.84;99213.97;7337941;39;20436;31
2023/09/08 18:29:04;;;;;;;6.82;6.05;;;;;;;25.73;63.14;99220.44;7319886;39;20230;31
2023/09/08 18:34:24;;;;;;;7.10;6.40;;;;;;;25.56;63.54;99237.97;7269888;40;20776;31
2023/09/08 18:39:44;;;;;;;6.82;6.18;;;;;;;25.41;63.14;99228.69;7260031;40;20420;31
2023/09/08 18:45:22;;;;;;;9.52;6.40;;;;;;;25.18;64.56;99237.31;7244270;40;20365;31
2023/09/08 18:50:58;;;;;;;6.50;5.90;;;;;;;25.06;64.11;99238.28;7220028;40;20304;31
2023/09/08 18:56:19;;;;;;;7.40;6.35;;;;;;;24.91;64.60;99240.88;7256466;40;20427;31
2023/09/08 19:01:56;;;;;;;9.15;6.55;;;;;;;24.77;65.48;99244.25;7257233;40;20260;31
2023/09/08 19:07:30;;;;;;;7.07;6.03;;;;;;;24.60;65.21;99244.34;7324629;39;20459;31
2023/09/08 19:12:50;;;;;;;8.00;6.00;;;;;;;24.42;65.60;99253.75;7284373;39;20264;31
2023/09/08 19:18:24;;;;;;;7.04;6.08;;;;;;;24.24;65.94;99251.28;7289546;39;20632;31
2023/09/08 19:24:02;;;;;;;7.47;6.45;;;;;;;24.11;66.21;99254.37;7352888;39;20256;31
2023/09/08 19:29:23;;;;;;;7.83;6.13;;;;;;;23.94;66.00;99253.56;7245546;39;21706;31
2023/09/08 19:34:58;;;;;;;8.98;6.18;;;;;;;23.80;66.47;99250.31;7214309;40;20406;31
2023/09/08 19:45:24;;;;;;;8.65;6.80;;;;;;;23.60;66.32;99242.56;7196926;40;21765;31
2023/09/08 19:50:57;;;;;;;7.60;6.10;;;;;;;23.40;67.88;99247.66;7265863;40;20231;31
2023/09/08 19:56:17;;;;;;;6.55;5.90;;;;;;;23.33;66.16;99245.09;7272738;39;20249;31
2023/09/08 20:01:40;;;;;;;7.65;6.25;;;;;;;23.20;67.33;99239.91;7275097;39;20402;31
2023/09/08 20:12:30;;;;;;;8.50;5.95;;;;;;;22.90;67.52;99239.34;7293688;39;21212;31
2023/09/08 20:23:47;;;;;;;7.27;4.87;;;;;;;22.73;67.80;99230.19;7362589;38;10059573;31
2023/09/08 20:34:42;;;;;;;8.50;5.80;;;;;;;22.64;68.33;99240.69;7470611;39;20376;31
2023/09/08 20:45:43;;;;;;;7.60;5.75;;;;;;;22.42;67.87;99243.25;7294823;39;20557;31
2023/09/08 20:51:24;;;;;;;8.65;6.28;;;;;;;22.26;69.35;99230.25;7210414;39;20378;31
2023/09/08 20:57:00;;;;;;;10.15;6.00;;;;;;;22.20;69.30;99227.66;7304859;39;20253;31
2023/09/08 21:02:21;;;;;;;8.13;5.43;;;;;;;22.16;68.72;99231.97;7295631;39;20549;31
2023/09/08 21:13:25;;;;;;;6.82;5.95;;;;;;;21.99;68.91;99224.44;7276981;40;20416;31
2023/09/08 21:24:55;;;;;;;6.87;6.17;;;;;;;21.92;69.75;99220.12;7319363;39;20792;31
2023/09/08 21:30:34;;;;;;;5.95;5.35;;;;;;;21.77;70.62;99215.09;7323895;39;21138;31
2023/09/08 21:36:18;;;;;;;6.50;5.90;;;;;;;21.65;70.39;99217.00;7153380;40;21108;31
2023/09/08 21:41:39;;;;;;;6.07;5.47;;;;;;;21.70;69.63;99217.13;7243732;40;20481;31
2023/09/08 21:46:58;;;;;;;7.05;5.78;;;;;;;21.71;70.27;99217.97;7248931;40;21122;31
2023/09/08 21:52:35;;;;;;;5.93;5.37;;;;;;;21.62;70.45;99216.66;7257702;39;20364;31
2023/09/08 21:57:55;;;;;;;6.47;5.65;;;;;;;21.55;69.91;99214.84;7251747;39;20345;31
2023/09/08 22:03:15;;;;;;;9.44;5.90;;;;;;;21.48;69.28;99213.31;7299180;39;20314;31
2023/09/08 22:08:51;;;;;;;8.00;5.45;;;;;;;21.38;70.31;99208.41;7309930;39;20244;31
2023/09/08 22:14:30;;;;;;;6.15;5.37;;;;;;;21.43;70.34;99207.69;7294496;39;20279;31
2023/09/08 22:20:12;;;;;;;7.40;5.30;;;;;;;21.27;70.57;99203.75;7265320;40;20253;31
2023/09/08 22:25:43;;;;;;;7.15;5.55;;;;;;;21.04;71.47;99212.69;7308889;39;20251;31
2023/09/08 22:31:18;;;;;;;5.70;5.20;;;;;;;21.03;71.49;99204.69;7266974;40;20267;31
2023/09/08 22:36:39;;;;;;;6.68;5.78;;;;;;;20.93;70.47;99216.22;7287710;40;20256;31
2023/09/08 22:42:15;;;;;;;7.40;5.82;;;;;;;20.81;71.48;99209.88;7296450;39;20488;31
2023/09/08 22:47:50;;;;;;;8.02;5.80;;;;;;;20.72;71.60;99211.25;7285262;39;20318;31
2023/09/08 22:53:25;;;;;;;6.70;5.37;;;;;;;20.60;71.36;99205.75;7281532;39;20307;31
2023/09/08 22:59:01;;;;;;;7.75;5.47;;;;;;;20.49;72.45;99197.47;7313732;39;20258;31
2023/09/08 23:04:21;;;;;;;8.05;5.55;;;;;;;20.47;71.44;99208.66;7257431;40;20257;31
2023/09/08 23:09:57;;;;;;;6.72;5.62;;;;;;;20.46;72.31;99206.13;7268316;40;20256;31
2023/09/08 23:15:33;;;;;;;6.82;5.93;;;;;;;20.46;72.39;99212.44;7287679;39;20341;31
2023/09/08 23:20:53;;;;;;;7.93;5.90;;;;;;;20.44;71.80;99206.38;7266853;40;20314;31
2023/09/08 23:26:14;;;;;;;6.10;5.50;;;;;;;20.30;71.62;99207.59;7278195;40;20251;31
2023/09/08 23:31:52;;;;;;;6.10;5.50;;;;;;;20.03;74.50;99198.00;7298224;39;20367;31
2023/09/08 23:37:27;;;;;;;6.05;5.45;;;;;;;19.98;72.65;99200.56;7309582;39;20261;31
2023/09/08 23:42:47;;;;;;;9.53;5.57;;;;;;;20.08;73.32;99190.78;7339401;39;20262;31
2023/09/08 23:48:24;;;;;;;8.05;5.40;;;;;;;20.05;73.96;99180.25;7300293;39;20260;31
2023/09/08 23:53:44;;;;;;;6.40;5.70;;;;;;;20.05;73.66;99195.88;7293418;39;20253;31
2023/09/08 23:59:05;;;;;;;6.28;5.45;;;;;;;20.24;71.28;99189.31;7332927;39;20922;31
